Time;durP1;ratioP1;P1;durP2;ratioP2;P2;SDS_P1;SDS_P2;PMS_P1;PMS_P2;Temp;Humidity;BMP_temperature;BMP_pressure;BME280_temperature;BME280_humidity;BME280_pressure;Samples;Min_cycle;Max_cycle;Signal;HPM_P1;HPM_P2
2023/09/11 00:00:48;;;;;;;13.00;7.80;;;;;;;12.19;58.88;99960.23;106628;1271;60102;-41
2023/09/11 00:03:15;;;;;;;11.30;7.30;;;;;;;12.20;58.64;99958.22;106623;1265;71617;-41
2023/09/11 00:05:43;;;;;;;10.30;7.00;;;;;;;12.20;58.87;99959.62;106662;1267;67808;-41
2023/09/11 00:08:30;;;;;;;13.10;8.00;;;;;;;12.20;59.19;99958.06;106535;1269;186270;-41
2023/09/11 00:10:58;;;;;;;9.70;6.80;;;;;;;12.18;59.40;99953.08;106705;1266;60086;-40
2023/09/11 00:13:26;;;;;;;12.70;7.20;;;;;;;12.17;59.42;99957.55;106774;1269;59817;-41
2023/09/11 00:15:54;;;;;;;11.00;7.30;;;;;;;12.16;59.49;99960.47;106738;1263;72297;-41
2023/09/11 00:18:23;;;;;;;11.50;7.40;;;;;;;12.15;59.63;99955.95;106768;1269;68226;-41
2023/09/11 00:20:51;;;;;;;11.40;6.90;;;;;;;12.13;59.73;99953.88;106774;1263;72710;-43
2023/09/11 00:23:19;;;;;;;12.40;6.90;;;;;;;12.10;59.76;99954.14;106823;1265;60093;-41
2023/09/11 00:25:47;;;;;;;11.40;7.30;;;;;;;12.08;59.79;99951.20;106793;1263;60046;-41
2023/09/11 00:28:14;;;;;;;9.30;6.70;;;;;;;12.05;59.68;99951.21;106986;1259;71771;-41
2023/09/11 00:30:42;;;;;;;9.20;6.60;;;;;;;12.01;59.68;99950.12;106979;1259;67006;-41
2023/09/11 00:33:10;;;;;;;10.40;6.90;;;;;;;11.98;59.83;99946.02;106880;1260;72712;-41
2023/09/11 00:35:38;;;;;;;11.00;6.80;;;;;;;11.96;59.90;99944.25;106879;1266;60112;-41
2023/09/11 00:38:06;;;;;;;10.00;6.60;;;;;;;11.94;59.98;99942.81;106893;1261;60149;-41
2023/09/11 00:40:33;;;;;;;9.30;6.90;;;;;;;11.92;60.15;99942.84;106909;1260;73197;-41
2023/09/11 00:43:01;;;;;;;13.80;6.30;;;;;;;11.95;59.92;99937.16;106918;1266;67675;-41
2023/09/11 00:45:28;;;;;;;10.70;6.60;;;;;;;12.02;59.64;99938.72;106924;1266;70624;-41
2023/09/11 00:47:59;;;;;;;11.30;7.00;;;;;;;12.06;59.71;99937.73;106853;1261;59279;-41
2023/09/11 00:50:27;;;;;;;10.30;6.60;;;;;;;12.06;59.67;99933.08;106873;1260;60033;-41
2023/09/11 00:52:55;;;;;;;8.50;6.30;;;;;;;12.07;59.63;99929.67;106929;1263;73773;-41
2023/09/11 00:55:22;;;;;;;15.90;6.60;;;;;;;12.07;59.68;99923.39;106880;1260;69076;-42
2023/09/11 00:57:50;;;;;;;13.50;6.80;;;;;;;12.08;59.48;99923.40;106889;1260;72687;-41
2023/09/11 01:00:18;;;;;;;10.00;6.80;;;;;;;12.04;59.51;99919.21;106882;1260;59631;-41
2023/09/11 01:02:47;;;;;;;11.30;6.80;;;;;;;12.00;59.39;99921.06;106904;1260;59635;-41
2023/09/11 01:05:15;;;;;;;11.40;6.80;;;;;;;11.96;59.46;99917.64;106924;1262;73091;-41
2023/09/11 01:07:42;;;;;;;10.50;6.60;;;;;;;11.93;59.63;99919.64;106853;1260;66357;-41
2023/09/11 01:10:10;;;;;;;10.20;6.30;;;;;;;11.90;59.77;99918.52;106738;1262;72798;-41
2023/09/11 01:12:38;;;;;;;10.00;6.30;;;;;;;11.88;59.62;99915.05;106824;1261;59158;-41
2023/09/11 01:15:08;;;;;;;8.90;6.40;;;;;;;11.88;59.51;99912.92;106869;1260;59627;-41
2023/09/11 01:17:35;;;;;;;;;;;;;;;11.85;59.70;99909.09;106870;1261;71713;-42
2023/09/11 01:20:39;;;;;;;10.90;5.90;;;;;;;11.83;59.82;99912.13;106874;1261;66776;-41
2023/09/11 01:23:40;;;;;;;11.70;5.90;;;;;;;11.77;59.93;99916.42;106860;1263;72680;-41
2023/09/11 01:26:47;;;;;;;9.80;5.80;;;;;;;11.73;60.07;99911.58;106874;1260;59470;-41
2023/09/11 01:29:26;;;;;;;9.50;5.90;;;;;;;11.71;60.33;99913.15;106696;1260;60083;-42
2023/09/11 01:31:54;;;;;;;7.80;5.40;;;;;;;11.70;60.32;99906.55;106876;1261;73112;-41
2023/09/11 01:34:22;;;;;;;7.70;6.00;;;;;;;11.68;60.45;99906.48;106914;1260;69021;-41
2023/09/11 01:36:49;;;;;;;11.00;6.30;;;;;;;11.66;60.46;99904.52;106850;1261;72704;-41
2023/09/11 01:39:17;;;;;;;10.20;6.10;;;;;;;11.65;60.52;99904.71;106880;1263;59651;-41
2023/09/11 01:41:46;;;;;;;9.00;5.80;;;;;;;11.62;60.52;99899.77;106913;1260;59269;-41
2023/09/11 01:44:18;;;;;;;9.60;6.30;;;;;;;11.61;60.57;99898.58;106956;1261;73953;-42
2023/09/11 01:46:46;;;;;;;10.50;6.40;;;;;;;11.58;60.73;99894.54;106844;1260;67629;-41
2023/09/11 01:49:14;;;;;;;8.20;5.70;;;;;;;11.56;61.05;99895.73;106849;1263;72801;-41
2023/09/11 01:51:41;;;;;;;8.50;5.40;;;;;;;11.59;61.16;99899.99;106868;1263;60428;-41
2023/09/11 01:54:09;;;;;;;8.50;5.90;;;;;;;11.65;61.30;99900.61;106831;1263;60040;-41
2023/09/11 01:56:37;;;;;;;9.90;6.00;;;;;;;11.69;61.33;99904.10;106763;1263;73135;-41
2023/09/11 01:59:05;;;;;;;7.20;5.40;;;;;;;11.68;61.55;99900.67;107219;1257;68066;-42
2023/09/11 02:01:32;;;;;;;9.20;6.30;;;;;;;11.68;61.75;99906.73;107167;1257;72701;-41
2023/09/11 02:04:00;;;;;;;10.10;5.80;;;;;;;11.69;61.87;99905.05;107250;1257;60192;-41
2023/09/11 02:06:28;;;;;;;9.20;5.60;;;;;;;11.70;62.16;99904.52;107281;1257;60008;-41
2023/09/11 02:08:56;;;;;;;7.30;5.60;;;;;;;11.69;62.04;99898.98;107368;1256;71814;-41
2023/09/11 02:11:23;;;;;;;9.00;5.70;;;;;;;11.68;61.96;99901.62;107278;1257;67705;-41
2023/09/11 02:13:51;;;;;;;8.60;6.00;;;;;;;11.67;61.95;99898.48;107281;1257;71534;-41
2023/09/11 02:16:19;;;;;;;8.50;5.50;;;;;;;11.65;61.71;99899.08;107206;1257;60074;-42
2023/09/11 02:18:47;;;;;;;8.10;5.50;;;;;;;11.62;61.59;99900.92;107270;1255;60026;-41
2023/09/11 02:21:15;;;;;;;8.10;5.90;;;;;;;11.58;61.54;99898.96;107278;1257;73499;-41
2023/09/11 02:23:43;;;;;;;10.20;6.40;;;;;;;11.56;61.43;99897.68;107143;1262;67578;-41
2023/09/11 02:26:10;;;;;;;8.70;5.50;;;;;;;11.52;61.36;99898.36;107246;1257;70997;-41
2023/09/11 02:28:38;;;;;;;8.00;5.50;;;;;;;11.49;61.45;99901.39;107263;1256;60183;-41
2023/09/11 02:31:07;;;;;;;10.00;5.70;;;;;;;11.45;61.23;99898.89;107290;1257;60094;-41
2023/09/11 02:33:35;;;;;;;8.70;6.00;;;;;;;11.36;61.24;99892.39;107305;1257;72169;-41
2023/09/11 02:36:03;;;;;;;10.10;5.90;;;;;;;11.37;61.25;99897.93;107295;1257;67585;-41
2023/09/11 02:38:31;;;;;;;10.90;6.10;;;;;;;11.34;61.22;99902.17;107320;1260;71138;-42
2023/09/11 02:41:00;;;;;;;8.70;5.90;;;;;;;11.30;61.32;99903.65;107280;1257;59633;-41
2023/09/11 02:43:36;;;;;;;8.30;5.60;;;;;;;11.28;61.53;99905.14;107253;1256;59600;-41
2023/09/11 02:46:04;;;;;;;9.10;6.00;;;;;;;11.30;61.59;99903.26;107322;1257;71833;-41
2023/09/11 02:48:32;;;;;;;9.40;5.90;;;;;;;11.36;61.51;99904.24;107279;1257;67604;-41
2023/09/11 02:51:00;;;;;;;9.40;5.70;;;;;;;11.38;61.53;99905.38;107275;1256;72644;-41
2023/09/11 02:53:27;;;;;;;10.60;6.50;;;;;;;11.38;61.44;99907.55;107305;1256;60077;-42
2023/09/11 02:55:55;;;;;;;8.70;5.80;;;;;;;11.38;61.60;99906.31;107192;1261;60050;-41
2023/09/11 02:58:23;;;;;;;9.60;6.40;;;;;;;11.36;61.46;99906.13;107287;1254;73356;-41
2023/09/11 03:00:51;;;;;;;9.60;5.90;;;;;;;11.35;61.52;99905.80;107275;1254;67600;-41
2023/09/11 03:03:19;;;;;;;10.90;6.50;;;;;;;11.35;61.55;99901.44;107229;1254;72736;-41
2023/09/11 03:05:55;;;;;;;14.30;6.60;;;;;;;11.35;61.58;99899.50;107283;1257;60071;-41
2023/09/11 03:08:23;;;;;;;8.40;6.00;;;;;;;11.33;61.68;99895.56;107223;1255;60142;-41
2023/09/11 03:10:52;;;;;;;10.70;5.80;;;;;;;11.34;61.42;99892.02;107309;1257;71847;-41
2023/09/11 03:13:20;;;;;;;8.90;6.00;;;;;;;11.32;61.37;99887.35;107162;1254;67592;-41
2023/09/11 03:15:47;;;;;;;10.40;6.00;;;;;;;11.31;61.43;99886.37;107264;1254;72681;-41
2023/09/11 03:18:15;;;;;;;10.60;5.80;;;;;;;11.27;61.49;99881.47;107289;1255;60077;-41
2023/09/11 03:20:43;;;;;;;9.50;5.60;;;;;;;11.23;61.36;99880.82;107316;1254;59606;-41
2023/09/11 03:23:11;;;;;;;10.80;6.70;;;;;;;11.17;61.32;99881.55;107341;1255;73040;-42
2023/09/11 03:25:45;;;;;;;10.40;6.50;;;;;;;11.13;61.46;99884.62;107296;1261;66312;-42
2023/09/11 03:28:14;;;;;;;11.30;6.10;;;;;;;11.11;61.55;99886.13;107306;1257;71073;-41
2023/09/11 03:30:42;;;;;;;10.40;6.20;;;;;;;11.09;61.57;99884.52;107338;1261;59730;-41
2023/09/11 03:33:10;;;;;;;10.90;5.80;;;;;;;11.11;61.59;99887.41;107285;1254;59494;-41
2023/09/11 03:35:37;;;;;;;10.60;6.80;;;;;;;11.14;61.65;99885.27;107282;1254;72097;-41
2023/09/11 03:38:05;;;;;;;10.60;6.30;;;;;;;11.15;61.83;99886.36;107142;1254;67782;-41
2023/09/11 03:40:33;;;;;;;10.60;6.40;;;;;;;11.16;62.01;99888.63;107247;1260;72967;-41
2023/09/11 03:43:01;;;;;;;10.40;6.40;;;;;;;11.17;61.95;99887.97;107346;1257;59614;-42
2023/09/11 03:45:28;;;;;;;11.80;7.20;;;;;;;11.19;62.03;99890.96;107261;1254;59608;-42
2023/09/11 03:47:56;;;;;;;10.60;7.00;;;;;;;11.20;61.94;99893.02;107143;1257;73052;-41
2023/09/11 03:50:24;;;;;;;9.10;6.50;;;;;;;11.21;62.05;99891.08;107296;1257;66420;-41
2023/09/11 03:52:51;;;;;;;12.00;7.00;;;;;;;11.21;62.36;99890.88;107252;1257;71620;-41
2023/09/11 03:55:19;;;;;;;10.30;6.50;;;;;;;11.22;62.58;99893.07;107251;1255;59770;-41
2023/09/11 03:57:47;;;;;;;13.40;7.00;;;;;;;11.24;62.68;99892.32;107278;1254;59196;-41
2023/09/11 04:00:16;;;;;;;8.60;5.90;;;;;;;11.24;62.90;99888.38;107266;1256;71774;-41
2023/09/11 04:02:43;;;;;;;11.10;7.00;;;;;;;11.25;63.05;99887.63;107259;1257;66307;-41
2023/09/11 04:05:12;;;;;;;12.10;7.00;;;;;;;11.25;63.22;99888.80;107236;1254;72684;-41
2023/09/11 04:07:39;;;;;;;10.30;6.80;;;;;;;11.31;63.38;99888.31;107279;1255;61748;-41
2023/09/11 04:10:08;;;;;;;9.10;6.30;;;;;;;11.38;63.48;99887.62;107303;1254;60100;-41
2023/09/11 04:12:36;;;;;;;11.40;6.50;;;;;;;11.43;63.86;99886.66;107308;1255;72581;-41
2023/09/11 04:15:04;;;;;;;14.80;6.70;;;;;;;11.47;64.05;99885.91;107261;1254;66428;-41
2023/09/11 04:17:31;;;;;;;12.60;7.00;;;;;;;11.52;64.40;99886.63;107234;1254;72743;-41
2023/09/11 04:19:59;;;;;;;13.50;6.80;;;;;;;11.55;64.62;99885.63;107142;1257;60458;-41
2023/09/11 04:22:27;;;;;;;9.80;6.70;;;;;;;11.58;64.83;99884.30;107145;1262;60439;-41
2023/09/11 04:24:55;;;;;;;9.30;6.50;;;;;;;11.63;65.05;99882.79;107278;1257;72594;-41
2023/09/11 04:27:22;;;;;;;9.00;6.30;;;;;;;11.66;65.06;99884.17;107255;1254;68098;-41
2023/09/11 04:29:50;;;;;;;10.10;6.70;;;;;;;11.72;64.75;99882.86;107110;1258;72657;-41
2023/09/11 04:32:20;;;;;;;11.40;6.50;;;;;;;11.82;64.67;99882.21;107090;1258;60380;-41
2023/09/11 04:34:49;;;;;;;9.30;6.60;;;;;;;11.88;64.71;99881.11;107321;1261;59298;-41
2023/09/11 04:37:17;;;;;;;12.20;8.00;;;;;;;11.93;64.79;99879.28;107110;1255;73014;-41
2023/09/11 04:39:45;;;;;;;13.30;8.00;;;;;;;11.98;64.51;99876.67;107240;1254;67606;-41
2023/09/11 04:42:12;;;;;;;10.80;6.90;;;;;;;12.04;64.23;99885.50;107249;1254;72704;-41
2023/09/11 04:44:40;;;;;;;10.70;7.80;;;;;;;12.09;64.05;99878.54;107179;1262;60387;-41
2023/09/11 04:47:08;;;;;;;13.30;7.70;;;;;;;12.14;63.91;99875.38;107375;1254;60460;-43
2023/09/11 04:49:36;;;;;;;12.70;7.80;;;;;;;12.17;63.64;99874.30;107297;1254;72400;-41
2023/09/11 04:52:04;;;;;;;13.00;8.50;;;;;;;12.22;63.32;99871.58;107326;1254;66749;-41
2023/09/11 04:54:32;;;;;;;16.10;8.30;;;;;;;12.26;63.21;99874.78;107292;1254;71427;-41
2023/09/11 04:56:59;;;;;;;15.90;9.30;;;;;;;12.32;62.97;99879.86;107145;1260;60500;-41
2023/09/11 04:59:27;;;;;;;14.90;9.00;;;;;;;12.36;62.31;99881.73;107287;1254;60367;-41
2023/09/11 05:01:55;;;;;;;14.30;8.90;;;;;;;12.41;61.94;99875.71;107188;1254;74307;-41
2023/09/11 05:04:23;;;;;;;16.70;9.20;;;;;;;12.47;61.87;99874.58;107280;1263;67661;-42
2023/09/11 05:06:51;;;;;;;17.30;9.30;;;;;;;12.54;62.04;99873.16;107169;1254;71737;-40
2023/09/11 05:09:19;;;;;;;13.90;8.80;;;;;;;12.59;61.51;99875.05;107292;1257;60417;-40
2023/09/11 05:11:47;;;;;;;13.30;8.70;;;;;;;12.63;61.16;99872.31;107249;1254;60357;-40
2023/09/11 05:14:14;;;;;;;12.30;7.90;;;;;;;12.68;61.22;99872.55;107310;1254;73858;-41
2023/09/11 05:16:42;;;;;;;14.50;8.40;;;;;;;12.72;61.43;99872.10;107284;1262;67570;-41
2023/09/11 05:19:10;;;;;;;16.20;8.80;;;;;;;12.81;61.26;99872.33;107311;1254;72669;-41
2023/09/11 05:21:38;;;;;;;12.90;8.30;;;;;;;12.94;61.10;99871.17;107399;1257;60447;-40
2023/09/11 05:24:05;;;;;;;12.00;8.20;;;;;;;13.04;60.78;99868.55;107308;1256;60444;-41
2023/09/11 05:26:33;;;;;;;13.80;8.10;;;;;;;13.14;60.51;99871.38;107330;1254;74672;-41
2023/09/11 05:29:00;;;;;;;13.70;7.80;;;;;;;13.23;60.81;99870.21;107296;1254;66629;-41
2023/09/11 05:31:28;;;;;;;10.20;7.70;;;;;;;13.35;60.33;99873.42;107266;1254;73171;-41
2023/09/11 05:33:56;;;;;;;15.10;7.90;;;;;;;13.44;59.91;99875.29;107347;1254;60511;-41
2023/09/11 05:36:23;;;;;;;12.30;8.10;;;;;;;13.53;60.11;99875.50;107305;1262;60386;-41
2023/09/11 05:38:51;;;;;;;12.40;7.70;;;;;;;13.63;60.26;99873.31;107149;1254;72584;-41
2023/09/11 05:41:20;;;;;;;11.20;7.30;;;;;;;13.71;60.13;99868.54;107532;1254;67875;-41
2023/09/11 05:43:48;;;;;;;12.10;7.10;;;;;;;13.80;59.85;99868.66;107506;1258;72677;-41
2023/09/11 05:46:16;;;;;;;9.40;6.20;;;;;;;13.90;59.64;99865.29;107542;1254;60440;-41
2023/09/11 05:48:43;;;;;;;9.20;5.80;;;;;;;13.99;58.90;99863.46;107391;1254;60332;-40
2023/09/11 05:51:13;;;;;;;11.20;6.60;;;;;;;14.09;58.67;99859.63;107525;1252;73861;-41
2023/09/11 05:53:41;;;;;;;9.10;6.00;;;;;;;14.20;58.14;99854.00;107535;1254;66649;-41
2023/09/11 05:56:09;;;;;;;9.50;6.30;;;;;;;14.32;57.79;99851.42;107512;1253;71833;-40
2023/09/11 05:58:37;;;;;;;8.40;5.50;;;;;;;14.46;57.67;99853.54;107491;1254;60980;-40
2023/09/11 06:01:05;;;;;;;8.10;5.70;;;;;;;14.57;57.32;99854.06;107487;1259;60450;-41
2023/09/11 06:03:33;;;;;;;7.60;5.60;;;;;;;14.69;57.00;99852.77;107515;1252;73878;-41
2023/09/11 06:06:01;;;;;;;8.00;5.80;;;;;;;14.80;56.79;99851.48;107547;1254;67574;-41
2023/09/11 06:08:29;;;;;;;8.10;5.00;;;;;;;14.92;56.05;99854.71;107391;1254;72676;-41
2023/09/11 06:10:56;;;;;;;7.40;5.50;;;;;;;15.04;56.28;99855.83;107564;1253;60543;-41
2023/09/11 06:13:24;;;;;;;9.50;5.00;;;;;;;15.15;56.21;99856.63;107501;1254;60331;-41
2023/09/11 06:15:52;;;;;;;10.00;5.40;;;;;;;15.27;55.19;99859.30;107504;1258;73831;-41
2023/09/11 06:18:19;;;;;;;8.70;5.40;;;;;;;15.38;54.97;99859.63;107503;1254;68172;-41
2023/09/11 06:20:47;;;;;;;9.30;5.40;;;;;;;15.51;54.83;99856.36;107492;1258;72667;-41
2023/09/11 06:23:15;;;;;;;8.40;5.20;;;;;;;15.66;54.50;99858.98;107517;1254;60532;-42
2023/09/11 06:25:42;;;;;;;8.10;4.70;;;;;;;15.81;53.76;99861.26;107507;1258;60422;-41
2023/09/11 06:28:10;;;;;;;6.70;4.70;;;;;;;15.96;53.36;99863.14;107473;1254;73819;-41
2023/09/11 06:30:38;;;;;;;6.80;4.60;;;;;;;16.12;52.81;99860.55;107512;1254;67756;-41
2023/09/11 06:33:05;;;;;;;6.60;4.20;;;;;;;16.29;52.03;99862.03;107500;1254;72734;-41
2023/09/11 06:35:33;;;;;;;11.20;4.50;;;;;;;16.48;51.73;99865.23;107508;1254;60553;-41
2023/09/11 06:38:01;;;;;;;6.10;4.00;;;;;;;16.66;50.44;99861.23;107516;1254;60453;-41
2023/09/11 06:40:28;;;;;;;7.50;4.40;;;;;;;16.85;49.21;99860.34;107547;1259;73873;-41
2023/09/11 06:42:57;;;;;;;7.40;4.20;;;;;;;17.06;48.41;99861.06;107463;1254;67891;-41
2023/09/11 06:45:24;;;;;;;6.10;3.80;;;;;;;17.24;47.25;99861.23;107513;1254;72671;-41
2023/09/11 06:47:52;;;;;;;8.40;3.30;;;;;;;17.42;46.57;99860.89;107498;1259;60143;-41
2023/09/11 06:50:20;;;;;;;8.60;3.40;;;;;;;17.59;45.55;99861.45;107517;1254;60422;-41
2023/09/11 06:52:47;;;;;;;9.20;3.60;;;;;;;17.76;44.69;99857.42;107503;1254;71406;-41
2023/09/11 06:55:15;;;;;;;7.00;3.50;;;;;;;17.91;44.59;99854.41;107494;1254;66829;-41
2023/09/11 06:57:55;;;;;;;6.70;3.30;;;;;;;18.04;45.10;99850.14;107497;1254;72785;-41
2023/09/11 07:00:22;;;;;;;5.40;3.00;;;;;;;18.19;43.65;99851.96;107511;1254;60485;-41
2023/09/11 07:02:50;;;;;;;9.10;3.10;;;;;;;18.31;43.72;99852.85;107481;1254;60257;-41
2023/09/11 07:05:20;;;;;;;9.40;3.60;;;;;;;18.43;43.29;99849.27;107490;1254;73873;-41
2023/09/11 07:07:47;;;;;;;6.70;2.70;;;;;;;18.54;42.91;99850.25;107541;1254;67618;-41
2023/09/11 07:10:17;;;;;;;3.90;2.70;;;;;;;18.63;42.86;99850.20;107496;1254;72742;-41
2023/09/11 07:13:00;;;;;;;7.20;2.90;;;;;;;18.73;42.87;99848.89;107521;1254;60442;-41
2023/09/11 07:15:28;;;;;;;5.50;3.30;;;;;;;18.81;42.97;99843.73;107513;1254;60021;-41
2023/09/11 07:17:56;;;;;;;6.00;2.70;;;;;;;18.88;42.28;99846.91;107513;1253;73825;-41
2023/09/11 07:20:24;;;;;;;4.40;2.80;;;;;;;18.93;42.06;99849.39;107505;1255;68006;-41
2023/09/11 07:22:52;;;;;;;5.00;2.90;;;;;;;18.97;41.78;99849.91;107525;1254;72687;-41
2023/09/11 07:25:22;;;;;;;6.10;3.00;;;;;;;19.01;41.48;99848.23;107489;1254;60519;-41
2023/09/11 07:27:53;;;;;;;5.70;3.30;;;;;;;19.07;41.09;99849.20;107509;1253;60434;-41
2023/09/11 07:30:21;;;;;;;;;;;;;;;19.15;41.25;99845.36;107495;1254;74172;-41
2023/09/11 07:32:51;;;;;;;5.30;3.20;;;;;;;19.23;41.86;99845.92;107500;1254;67597;-41
2023/09/11 07:35:21;;;;;;;7.40;3.10;;;;;;;19.35;41.37;99845.19;107506;1254;72686;-42
2023/09/11 07:37:48;;;;;;;6.40;3.40;;;;;;;19.51;40.94;99844.13;107513;1254;60459;-43
2023/09/11 07:40:16;;;;;;;7.30;3.10;;;;;;;19.68;39.97;99843.26;107518;1252;60423;-40
2023/09/11 07:42:43;;;;;;;4.80;3.20;;;;;;;19.83;40.35;99841.13;107510;1254;73831;-41
2023/09/11 07:45:11;;;;;;;4.40;2.70;;;;;;;19.99;40.20;99845.34;107523;1254;66421;-41
2023/09/11 07:47:39;;;;;;;5.70;2.60;;;;;;;20.14;39.93;99839.20;107571;1254;73179;-41
2023/09/11 07:50:07;;;;;;;6.70;2.20;;;;;;;20.31;39.28;99836.86;107506;1254;60664;-41
2023/09/11 07:52:35;;;;;;;5.10;2.60;;;;;;;20.47;39.40;99839.35;107595;1254;60430;-41
2023/09/11 07:55:04;;;;;;;3.40;2.60;;;;;;;20.61;39.07;99838.29;107510;1254;73854;-41
2023/09/11 07:57:31;;;;;;;3.30;2.30;;;;;;;20.78;38.36;99834.97;107561;1254;67625;-41
2023/09/11 08:00:04;;;;;;;4.90;2.40;;;;;;;20.90;37.00;99833.91;107523;1254;72862;-41
2023/09/11 08:02:33;;;;;;;5.30;2.70;;;;;;;20.97;36.66;99829.86;107572;1257;60534;-41
2023/09/11 08:05:00;;;;;;;3.80;2.60;;;;;;;21.01;36.87;99831.38;107621;1252;60508;-42
2023/09/11 08:07:28;;;;;;;3.10;2.50;;;;;;;21.08;37.75;99831.10;107629;1253;72664;-41
2023/09/11 08:09:58;;;;;;;4.10;2.80;;;;;;;21.20;37.63;99833.23;107528;1254;66822;-41
2023/09/11 08:12:26;;;;;;;5.30;3.20;;;;;;;21.34;37.86;99831.17;107536;1254;73932;-41
2023/09/11 08:14:53;;;;;;;4.00;3.20;;;;;;;21.46;37.18;99824.34;107512;1254;60326;-41
2023/09/11 08:17:21;;;;;;;5.00;3.50;;;;;;;21.57;36.41;99823.27;107532;1254;60469;-41
2023/09/11 08:19:49;;;;;;;3.60;2.70;;;;;;;21.61;36.24;99820.90;107510;1252;72554;-41
2023/09/11 08:22:17;;;;;;;7.50;3.10;;;;;;;21.63;36.35;99820.64;107541;1254;67682;-41
2023/09/11 08:24:45;;;;;;;5.80;2.60;;;;;;;21.65;36.41;99818.94;107513;1257;71467;-41
2023/09/11 08:27:13;;;;;;;8.10;2.60;;;;;;;21.66;35.83;99818.76;107507;1254;60463;-41
2023/09/11 08:29:41;;;;;;;4.90;2.80;;;;;;;21.65;36.37;99817.20;107524;1257;60288;-42
2023/09/11 08:32:08;;;;;;;4.20;2.50;;;;;;;21.61;36.40;99817.90;107497;1253;73878;-42
2023/09/11 08:34:36;;;;;;;3.80;2.50;;;;;;;21.59;36.25;99822.52;107534;1254;68088;-41
2023/09/11 08:37:04;;;;;;;5.30;2.90;;;;;;;21.58;36.69;99816.95;107500;1254;72807;-41
2023/09/11 08:39:31;;;;;;;5.30;2.70;;;;;;;21.63;36.60;99816.77;107496;1254;60568;-41
2023/09/11 08:41:59;;;;;;;5.10;2.60;;;;;;;21.71;36.07;99818.05;107490;1260;60731;-41
2023/09/11 08:44:27;;;;;;;7.30;2.50;;;;;;;21.73;35.44;99817.78;107358;1257;73855;-41
2023/09/11 08:46:56;;;;;;;4.00;2.40;;;;;;;21.71;35.83;99819.61;107367;1257;67919;-41
2023/09/11 08:49:24;;;;;;;2.90;2.30;;;;;;;21.69;35.63;99816.10;107535;1258;74958;-41
2023/09/11 08:51:53;;;;;;;4.00;2.40;;;;;;;21.68;35.55;99811.80;107512;1254;60530;-41
2023/09/11 08:54:21;;;;;;;3.30;2.70;;;;;;;21.68;35.95;99812.33;107508;1254;60455;-41
2023/09/11 08:56:48;;;;;;;3.20;2.30;;;;;;;21.72;36.15;99811.88;107386;1254;73889;-42
2023/09/11 08:59:17;;;;;;;3.80;2.50;;;;;;;21.74;36.12;99807.56;107505;1253;68069;-42
2023/09/11 09:01:45;;;;;;;4.00;2.40;;;;;;;21.75;35.92;99809.67;107356;1254;72745;-42
2023/09/11 09:04:13;;;;;;;4.10;2.50;;;;;;;21.77;36.34;99807.45;107489;1254;60370;-42
2023/09/11 09:06:40;;;;;;;3.40;2.30;;;;;;;21.79;36.61;99805.19;107278;1258;60574;-42
2023/09/11 09:09:08;;;;;;;4.20;2.50;;;;;;;21.88;36.59;99800.67;107448;1257;74174;-42
2023/09/11 09:11:36;;;;;;;6.90;2.50;;;;;;;22.00;36.12;99795.95;107622;1253;67868;-42
2023/09/11 09:14:06;;;;;;;3.50;2.50;;;;;;;22.16;36.19;99788.70;107497;1258;71429;-42
2023/09/11 09:16:33;;;;;;;4.30;2.70;;;;;;;22.29;35.83;99787.67;107519;1254;60475;-42
2023/09/11 09:19:01;;;;;;;3.70;2.40;;;;;;;22.38;34.79;99780.09;107385;1254;60539;-42
2023/09/11 09:21:29;;;;;;;4.00;2.20;;;;;;;22.39;35.24;99775.00;107517;1254;74676;-42
2023/09/11 09:24:08;;;;;;;3.10;2.00;;;;;;;22.47;34.68;99773.56;107524;1260;66443;-42
2023/09/11 09:27:00;;;;;;;3.30;1.80;;;;;;;22.55;35.05;99765.95;107509;1257;73271;-42
2023/09/11 09:29:35;;;;;;;4.20;2.10;;;;;;;22.64;34.44;99773.48;107360;1257;60568;-42
2023/09/11 09:32:05;;;;;;;4.90;2.10;;;;;;;22.64;34.08;99764.95;107536;1253;60325;-42
2023/09/11 09:34:34;;;;;;;4.50;2.40;;;;;;;22.63;33.91;99765.38;107493;1254;73917;-42
2023/09/11 09:37:01;;;;;;;4.50;2.20;;;;;;;22.62;34.58;99760.56;107533;1257;60472;-42
2023/09/11 09:39:29;;;;;;;2.50;1.80;;;;;;;22.70;34.68;99763.96;107301;1254;72083;-42
2023/09/11 09:41:58;;;;;;;3.40;2.20;;;;;;;22.79;34.61;99763.42;107497;1259;60418;-42
2023/09/11 09:44:34;;;;;;;2.90;2.30;;;;;;;22.87;33.57;99766.23;107542;1254;60318;-42
2023/09/11 09:47:06;;;;;;;3.90;2.00;;;;;;;22.86;33.97;99763.33;107535;1254;72694;-42
2023/09/11 09:49:52;;;;;;;10.60;3.10;;;;;;;22.89;34.31;99764.05;107558;1259;67856;-42
2023/09/11 09:52:21;;;;;;;3.20;1.80;;;;;;;22.97;34.58;99762.98;107532;1254;72674;-42
2023/09/11 09:54:58;;;;;;;3.20;1.80;;;;;;;23.09;34.61;99754.86;107537;1254;61290;-42
2023/09/11 09:57:26;;;;;;;4.10;2.30;;;;;;;23.25;34.57;99750.73;107489;1257;60422;-42
2023/09/11 09:59:57;;;;;;;3.20;2.20;;;;;;;23.39;33.69;99750.17;107563;1257;73837;-42
2023/09/11 10:02:29;;;;;;;2.80;1.90;;;;;;;23.48;33.22;99748.31;107522;1260;66565;-42
2023/09/11 10:04:59;;;;;;;3.00;2.10;;;;;;;23.50;32.98;99744.60;107505;1255;72935;-42
2023/09/11 10:07:38;;;;;;;4.50;1.80;;;;;;;23.49;33.30;99742.58;107538;1257;60523;-42
2023/09/11 10:10:20;;;;;;;7.30;2.00;;;;;;;23.47;33.32;99743.30;107531;1254;60081;-42
2023/09/11 10:13:00;;;;;;;4.20;2.00;;;;;;;23.44;33.52;99739.46;107483;1257;72693;-42
2023/09/11 10:15:29;;;;;;;2.60;1.90;;;;;;;23.48;34.09;99737.47;107543;1254;68871;-42
2023/09/11 10:17:57;;;;;;;4.00;2.20;;;;;;;23.60;34.47;99732.48;107517;1254;71464;-43
2023/09/11 10:20:26;;;;;;;4.30;2.20;;;;;;;23.68;34.27;99721.55;107494;1260;60542;-41
2023/09/11 10:22:55;;;;;;;2.70;2.00;;;;;;;23.79;33.48;99725.05;107442;1254;60379;-42
2023/09/11 10:25:23;;;;;;;4.40;2.30;;;;;;;23.82;33.70;99723.45;107454;1254;74301;-42
2023/09/11 10:27:54;;;;;;;4.00;2.00;;;;;;;23.84;33.19;99722.44;107436;1258;68338;-41
2023/09/11 10:30:23;;;;;;;3.00;1.90;;;;;;;23.85;33.28;99720.36;107439;1254;73154;-41
2023/09/11 10:33:00;;;;;;;4.70;1.80;;;;;;;23.89;33.73;99715.10;107522;1253;60341;-41
2023/09/11 10:35:31;;;;;;;3.70;2.20;;;;;;;23.98;33.60;99715.30;107453;1258;61046;-41
2023/09/11 10:37:58;;;;;;;6.00;2.30;;;;;;;24.07;33.84;99715.42;107420;1254;73943;-41
2023/09/11 10:40:31;;;;;;;7.80;2.10;;;;;;;24.15;33.64;99713.05;107143;1254;67951;-41
2023/09/11 10:42:58;;;;;;;3.80;2.40;;;;;;;24.27;33.39;99711.98;107391;1254;72843;-41
2023/09/11 10:45:30;;;;;;;4.70;2.10;;;;;;;24.45;33.73;99710.40;107304;1260;59598;-41
2023/09/11 10:47:58;;;;;;;3.50;2.30;;;;;;;24.59;33.12;99705.48;107435;1254;60482;-42
2023/09/11 10:50:37;;;;;;;3.70;2.10;;;;;;;24.77;32.72;99700.45;107403;1255;73946;-43
2023/09/11 10:53:05;;;;;;;5.60;2.20;;;;;;;25.05;32.50;99698.67;107447;1258;67584;-43
2023/09/11 10:55:32;;;;;;;5.20;2.60;;;;;;;25.35;32.38;99703.45;107281;1253;72615;-41
2023/09/11 10:58:04;;;;;;;4.90;2.60;;;;;;;25.63;31.90;99700.48;107386;1255;60655;-41
2023/09/11 11:00:37;;;;;;;2.50;2.00;;;;;;;25.84;31.73;99696.85;107456;1254;60322;-41
2023/09/11 11:03:05;;;;;;;3.80;2.10;;;;;;;25.99;30.28;99699.59;107438;1254;74003;-41
2023/09/11 11:05:33;;;;;;;5.00;2.10;;;;;;;26.01;30.13;99696.05;107489;1259;67562;-41
2023/09/11 11:08:01;;;;;;;3.10;2.10;;;;;;;25.92;30.19;99694.80;107402;1260;71518;-42
2023/09/11 11:10:29;;;;;;;3.20;2.50;;;;;;;25.87;30.58;99694.17;107450;1259;62262;-42
2023/09/11 11:13:07;;;;;;;3.20;2.30;;;;;;;25.88;30.19;99686.85;107433;1254;62189;-42
2023/09/11 11:15:35;;;;;;;2.50;2.30;;;;;;;25.90;30.10;99685.35;107479;1255;74340;-42
2023/09/11 11:18:14;;;;;;;3.00;2.20;;;;;;;25.99;30.17;99683.40;107431;1259;67883;-42
2023/09/11 11:21:14;;;;;;;3.00;2.50;;;;;;;26.21;30.18;99676.84;107384;1260;72681;-42
2023/09/11 11:23:53;;;;;;;4.70;2.60;;;;;;;26.45;30.21;99670.48;107102;1254;60527;-42
2023/09/11 11:26:23;;;;;;;3.50;2.20;;;;;;;26.56;30.21;99673.59;107409;1260;60828;-42
2023/09/11 11:28:51;;;;;;;4.40;2.10;;;;;;;26.57;30.51;99672.65;107466;1258;76112;-42
2023/09/11 11:31:20;;;;;;;2.90;2.40;;;;;;;26.48;29.81;99669.09;107413;1259;68313;-42